createdAt,value
2022-11-27T10:59:28.788Z,1.71
2022-11-27T11:01:40.664Z,1.99
2022-11-27T11:02:35.901Z,1.99
2022-11-27T11:03:15.911Z,1.99
2022-11-27T11:03:54.749Z,1.71
2022-11-27T11:09:25.843Z,1.71
2022-11-27T11:10:36.914Z,1.71
2022-11-27T11:24:29.999Z,1.71
2022-11-27T11:25:39.204Z,1.32
2022-11-27T11:25:39.708Z,1.54
2022-11-27T11:26:22.264Z,1.89
2022-11-27T11:29:26.951Z,1.99
2022-11-27T11:30:38.863Z,2.31
2022-11-27T12:26:07.297Z,1.62
2022-11-27T12:27:31.790Z,1.11
2022-11-27T12:28:16.107Z,1.54
2022-11-27T12:29:01.495Z,1.32
2022-11-27T12:29:46.568Z,1.54
2022-11-27T12:30:31.609Z,0.95
2022-11-27T12:31:18.362Z,1.54
2022-11-27T12:32:02.749Z,1.54
2022-11-27T12:32:47.098Z,1.75
2022-11-27T12:33:31.696Z,1.32
2022-11-27T12:34:17.059Z,1.54
2022-11-27T12:35:04.523Z,1.46
2022-11-27T12:35:47.155Z,1.46
2022-11-27T12:36:33.366Z,0.99
2022-11-27T12:37:21.079Z,1.54
2022-11-27T12:38:03.603Z,1.54
2022-11-27T12:38:47.406Z,1.17
2022-11-27T12:39:33.264Z,1.62
2022-11-27T12:40:17.939Z,1.62
2022-11-27T12:41:12.660Z,1.32
2022-11-27T12:41:47.348Z,1.32
2022-11-27T12:42:32.469Z,1.32
2022-11-27T12:43:17.586Z,1.11
2022-11-27T12:44:02.340Z,1.25
2022-11-27T12:44:47.350Z,1.25
2022-11-27T12:45:32.458Z,1.04
2022-11-27T12:46:17.798Z,1.38
2022-11-27T12:47:02.594Z,1.38
2022-11-27T12:47:48.377Z,1.38
2022-11-27T12:48:32.950Z,1.38
2022-11-27T12:49:18.635Z,0.99
2022-11-27T12:50:05.587Z,1.38
2022-11-27T12:50:53.442Z,1.18
2022-11-27T12:51:33.660Z,1.25
2022-11-27T12:52:19.214Z,1.25
2022-11-27T12:53:03.782Z,1.38
2022-11-27T12:53:49.136Z,1.18
2022-11-27T12:54:34.205Z,1.46
2022-11-27T12:55:19.066Z,1.18
2022-11-27T12:56:04.039Z,1.18
2022-11-27T12:56:48.939Z,1.38
2022-11-27T12:57:33.482Z,1.18
2022-11-27T12:58:19.793Z,1.38
2022-11-27T12:59:04.528Z,0.85
2022-11-27T12:59:49.426Z,1.38
2022-11-27T13:00:34.838Z,1.18
2022-11-27T13:01:22.437Z,1.25
2022-11-27T13:02:04.049Z,1.11
2022-11-27T13:02:50.421Z,1.32
2022-11-27T13:03:34.496Z,1.32
2022-11-27T13:04:27.419Z,0.95
2022-11-27T13:05:06.712Z,1.10
2022-11-27T13:05:49.945Z,1.32
2022-11-27T13:06:34.281Z,1.10
2022-11-27T13:07:19.442Z,1.32
2022-11-27T13:08:04.258Z,1.32
2022-11-27T13:08:52.220Z,1.32
2022-11-27T13:09:34.601Z,1.25
2022-11-27T13:10:19.652Z,1.32
2022-11-27T13:11:08.018Z,1.32
2022-11-27T13:11:50.016Z,1.39
2022-11-27T13:12:34.819Z,1.32
2022-11-27T13:13:20.491Z,1.32
2022-11-27T13:14:08.617Z,1.54
2022-11-27T13:14:52.659Z,1.39
2022-11-27T13:15:36.512Z,1.10
2022-11-27T13:16:20.584Z,1.39
2022-11-27T13:17:05.159Z,1.16
2022-11-27T13:17:50.423Z,1.16
2022-11-27T13:18:35.393Z,1.39
2022-11-27T13:19:21.158Z,1.39
2022-11-27T13:20:07.645Z,1.16
2022-11-27T13:20:52.625Z,1.39
2022-11-27T13:21:35.085Z,1.17
2022-11-27T13:22:21.386Z,1.39
2022-11-27T13:23:06.021Z,1.62
2022-11-27T13:23:51.795Z,1.32
2022-11-27T13:24:36.374Z,1.17
2022-11-27T13:25:21.414Z,1.32
2022-11-27T13:26:06.101Z,1.54
2022-11-27T13:26:51.093Z,1.46
2022-11-27T13:27:35.346Z,1.18
2022-11-27T13:28:21.785Z,0.94
2022-11-27T13:29:05.769Z,1.08
2022-11-27T13:29:50.705Z,1.24
2022-11-27T13:30:35.892Z,1.24
2022-11-27T13:31:20.935Z,1.17
2022-11-27T13:32:06.764Z,1.17
2022-11-27T13:32:51.471Z,1.17
2022-11-27T13:33:36.214Z,1.27
2022-11-27T13:34:24.170Z,1.11
2022-11-27T13:35:06.723Z,0.95
2022-11-27T13:35:55.227Z,1.27
2022-11-27T13:36:37.872Z,0.99
2022-11-27T13:37:26.609Z,0.86
2022-11-27T13:38:06.946Z,1.11
2022-11-27T13:38:52.837Z,1.11
2022-11-27T13:39:37.478Z,1.27
2022-11-27T13:40:23.755Z,1.14
2022-11-27T13:41:07.271Z,0.99
2022-11-27T13:41:52.225Z,1.14
2022-11-27T13:42:37.303Z,1.14
2022-11-27T13:43:23.159Z,0.99
2022-11-27T13:44:11.543Z,0.94
2022-11-27T13:44:52.241Z,1.14
2022-11-27T13:45:37.131Z,1.14
2022-11-27T13:46:23.858Z,1.14
2022-11-27T13:47:07.728Z,1.08
2022-11-27T13:47:51.873Z,1.08
2022-11-27T13:48:37.543Z,1.08
2022-11-27T13:49:22.395Z,1.08
2022-11-27T13:50:07.489Z,1.08
2022-11-27T13:50:52.088Z,1.21
2022-11-27T13:51:37.050Z,1.08
2022-11-27T13:52:22.826Z,1.08
2022-11-27T13:53:08.270Z,1.08
2022-11-27T13:53:53.338Z,1.08
2022-11-27T13:54:37.369Z,0.94
2022-11-27T13:55:22.569Z,1.08
2022-11-27T13:56:07.997Z,1.08
2022-11-27T13:56:54.159Z,0.82
2022-11-27T13:57:37.955Z,0.64
2022-11-27T13:58:23.473Z,0.94
2022-11-27T13:59:08.594Z,1.27
2022-11-27T13:59:53.531Z,1.27
2022-11-27T14:00:38.230Z,1.34
2022-11-27T14:01:23.399Z,1.17
2022-11-27T14:02:08.905Z,1.17
2022-11-27T14:02:52.983Z,1.34
2022-11-27T14:03:38.270Z,1.24
2022-11-27T14:04:23.775Z,0.89
2022-11-27T14:05:08.279Z,1.02
2022-11-27T14:05:53.826Z,1.24
2022-11-27T14:06:38.280Z,1.51
2022-11-27T14:07:23.587Z,1.41
2022-11-27T14:08:09.128Z,1.24
2022-11-27T14:08:53.753Z,1.24
2022-11-27T14:09:48.048Z,1.06
2022-11-27T14:10:24.234Z,1.38
2022-11-27T14:11:13.165Z,1.38
2022-11-27T14:13:44.185Z,1.58
2022-11-27T14:14:27.756Z,1.46
2022-11-27T14:14:55.373Z,1.66
2022-11-27T14:15:39.139Z,1.66
2022-11-27T14:16:24.848Z,1.46
2022-11-27T14:17:10.211Z,1.25
2022-11-27T14:17:54.110Z,1.25
2022-11-27T14:18:39.861Z,1.46
2022-11-27T14:19:26.344Z,1.25
2022-11-27T14:20:10.428Z,1.46
2022-11-27T14:20:55.840Z,1.46
2022-11-27T14:21:40.242Z,0.99
2022-11-27T14:22:25.681Z,1.46
2022-11-27T14:23:13.064Z,1.25
2022-11-27T14:23:54.776Z,0.99
2022-11-27T14:24:40.655Z,1.46
2022-11-27T14:25:25.190Z,1.46
2022-11-27T14:26:14.796Z,1.46
2022-11-27T14:26:56.273Z,1.46
2022-11-27T14:27:44.148Z,1.54
2022-11-27T14:28:26.086Z,1.32
2022-11-27T14:29:11.012Z,1.32
2022-11-27T14:29:57.074Z,1.54
2022-11-27T14:30:44.370Z,1.32
2022-11-27T14:31:25.091Z,1.32
2022-11-27T14:32:10.213Z,1.62
2022-11-27T14:32:55.516Z,1.32
2022-11-27T14:34:07.380Z,1.00
2022-11-27T14:34:25.217Z,1.17
2022-11-27T14:35:10.622Z,1.39
2022-11-27T14:35:56.302Z,1.32
2022-11-27T14:36:42.174Z,1.17
2022-11-27T14:37:30.616Z,1.32
2022-11-27T14:38:12.792Z,1.32
2022-11-27T14:38:59.264Z,1.54
2022-11-27T14:39:43.150Z,1.54
2022-11-27T14:40:26.321Z,1.32
2022-11-27T14:41:13.470Z,1.32
2022-11-27T14:41:57.166Z,1.32
2022-11-27T14:42:40.841Z,1.75
2022-11-27T14:43:26.070Z,0.95
2022-11-27T14:44:14.238Z,1.25
2022-11-27T14:44:55.740Z,1.66
2022-11-27T14:45:44.300Z,1.38
2022-11-27T14:46:33.777Z,1.38
2022-11-27T14:47:11.476Z,1.38
2022-11-27T14:47:56.621Z,1.18
2022-11-27T14:48:43.781Z,1.38
2022-11-27T14:49:27.005Z,1.38
2022-11-27T14:50:56.185Z,1.24
2022-11-27T15:21:19.298Z,0.81
2022-11-27T15:22:06.289Z,0.81
2022-11-27T15:23:35.142Z,0.94
2022-11-27T15:24:30.850Z,0.81
2022-11-27T15:25:03.643Z,0.81
2022-11-27T15:25:49.513Z,0.94
2022-11-27T15:26:44.772Z,0.81
2022-11-27T15:27:24.711Z,0.81
2022-11-27T15:28:04.547Z,0.94
2022-11-27T15:29:19.770Z,0.94
2022-11-27T15:30:53.595Z,0.81
2022-11-27T15:38:54.998Z,0.94
2022-11-27T15:39:31.798Z,0.94
2022-11-27T15:40:17.031Z,0.81
2022-11-27T15:41:05.356Z,0.85
2022-11-27T15:41:45.925Z,1.11
2022-11-27T15:42:35.319Z,0.79
2022-11-27T16:17:20.066Z,0.99
2022-11-27T16:56:53.084Z,0.81
2022-11-27T16:57:32.146Z,0.81
2022-11-27T16:58:14.354Z,0.94
2022-11-27T16:59:03.011Z,0.94
2022-11-27T16:59:56.067Z,0.94
2022-11-27T17:00:35.535Z,0.81
2022-11-27T17:01:18.838Z,1.11
2022-11-27T17:01:57.647Z,0.85
2022-11-27T17:02:41.442Z,1.14
2022-11-27T17:03:27.387Z,1.11
2022-11-27T17:05:44.544Z,0.71
2022-11-27T17:06:27.039Z,0.85
2022-11-27T17:08:05.394Z,0.85
2022-11-27T17:08:42.103Z,0.85
2022-11-27T17:09:27.595Z,1.11
2022-11-27T17:10:11.614Z,0.95
2022-11-27T17:13:24.142Z,0.81
2022-11-27T17:14:07.588Z,1.06
2022-11-27T17:15:28.295Z,1.17
2022-11-27T17:16:15.682Z,1.17
2022-11-27T17:17:06.668Z,0.95
2022-11-27T17:18:37.354Z,0.84
2022-11-27T17:31:23.323Z,0.95
2022-11-27T17:38:17.901Z,1.00
2022-11-27T17:42:46.503Z,0.81
2022-11-27T17:44:57.327Z,0.85
2022-11-27T17:46:48.304Z,0.81
2022-11-27T17:47:30.232Z,0.85
2022-11-27T17:47:54.367Z,0.85
2022-11-27T17:48:49.642Z,0.85
2022-11-27T20:18:22.166Z,0.95
2022-11-27T20:24:12.999Z,0.64
2022-11-27T20:26:27.039Z,1.06
2022-11-27T20:28:39.764Z,0.88
2022-11-27T20:28:40.584Z,1.06
2022-11-27T20:33:12.816Z,1.00
2022-11-27T20:37:50.057Z,1.06
2022-11-27T20:43:52.820Z,1.24
2022-11-27T20:52:43.213Z,1.58
2022-11-27T21:01:59.583Z,1.46
2022-11-27T21:15:06.580Z,1.62
2022-11-27T21:15:46.210Z,1.62
2022-11-27T21:15:58.774Z,1.46
2022-11-27T21:16:36.747Z,1.62
2022-11-27T21:17:21.850Z,1.85
2022-11-27T21:18:01.998Z,1.62
2022-11-27T21:18:46.639Z,1.62
2022-11-27T21:19:32.098Z,1.85
2022-11-27T21:20:19.781Z,1.17
2022-11-27T21:21:04.668Z,1.62
2022-11-27T21:21:45.206Z,1.62
2022-11-27T21:37:27.985Z,1.00
2022-11-27T21:41:24.375Z,0.75
2022-11-27T21:41:40.450Z,1.17
2022-11-27T21:43:46.676Z,0.75
2022-11-27T21:44:49.084Z,1.24
2022-11-27T21:47:01.368Z,1.32
